Salome, Arizona
Current Conditions -  °F | °C
As of 9:55 AM on Sunday 23 Nov 2014 (Local Time) from KBXK Reporting Station
Clear Clear  
Wind Chill: 57°   Ceiling: Unl
Heat Index: 57°   Visibility: 10mi
Dew Point: 28°   Wind: 6mph
Humidity: 33%   Direction: 200°SSW
Pressure: 30.1"   Gusts: NA
Location:  33.78°N, 113.62°W
Report Text: KBXK 231655Z AUTO 20005KT 10SM CLR 14/M02 A3010 RMK AO1
Loading
Personal Weather Stations






























Interactive Weather Map New forecast layout! Learn more

10-Day Weather Forecast

Advertisements
Track Severe Weather on mobile